createdAt,value
2023-04-23T00:10:10.004Z,101052.00
2023-04-23T00:20:34.117Z,101054.00
2023-04-23T00:30:55.584Z,101045.00
2023-04-23T00:41:20.701Z,101031.00
2023-04-23T00:51:42.002Z,101022.00
2023-04-23T01:02:05.859Z,101026.00
2023-04-23T01:12:28.748Z,101018.00
2023-04-23T01:22:52.008Z,101019.00
2023-04-23T01:33:13.719Z,101026.00
2023-04-23T01:43:37.370Z,101029.00
2023-04-23T01:53:58.673Z,101018.00
2023-04-23T02:04:22.292Z,101014.00
2023-04-23T02:14:46.618Z,100993.00
2023-04-23T02:25:10.690Z,100999.00
2023-04-23T02:35:32.651Z,101010.00
2023-04-23T02:45:56.836Z,100998.00
2023-04-23T02:56:18.437Z,101019.00
2023-04-23T03:06:41.883Z,101022.00
2023-04-23T03:17:03.594Z,101022.00
2023-04-23T03:27:28.180Z,101010.00
2023-04-23T03:37:50.584Z,101001.00
2023-04-23T03:48:15.934Z,100980.00
2023-04-23T03:58:39.490Z,100981.00
2023-04-23T04:09:02.832Z,100985.00
2023-04-23T04:19:25.959Z,101009.00
2023-04-23T04:29:49.025Z,100998.00
2023-04-23T04:40:11.552Z,100985.00
2023-04-23T04:50:34.372Z,100986.00
2023-04-23T05:00:56.352Z,100992.00
2023-04-23T05:11:20.908Z,100994.00
2023-04-23T05:21:42.571Z,100992.00
2023-04-23T05:32:05.840Z,100992.00
2023-04-23T05:42:27.400Z,100984.00
2023-04-23T05:52:50.629Z,100986.00
2023-04-23T06:03:12.794Z,100997.00
2023-04-23T06:13:42.902Z,100994.00
2023-04-23T06:24:05.467Z,100997.00
2023-04-23T06:34:28.762Z,100984.00
2023-04-23T06:44:51.902Z,100991.00
2023-04-23T06:55:14.772Z,100987.00
2023-04-23T07:05:39.923Z,100985.00
2023-04-23T07:16:03.110Z,101002.00
2023-04-23T07:26:28.712Z,101016.00
2023-04-23T07:36:52.086Z,101033.00
2023-04-23T07:47:14.104Z,101036.00
2023-04-23T07:57:36.845Z,101041.00
2023-04-23T08:07:58.232Z,101039.00
2023-04-23T08:18:21.043Z,101029.00
2023-04-23T08:28:43.636Z,101024.00
2023-04-23T08:39:07.106Z,101010.00
2023-04-23T08:49:33.320Z,101010.00
2023-04-23T08:59:57.158Z,101012.00
2023-04-23T09:10:19.383Z,101017.00
2023-04-23T09:20:43.959Z,101013.00
2023-04-23T09:31:06.628Z,101017.00
2023-04-23T09:41:31.219Z,101039.00
2023-04-23T09:51:52.740Z,101056.00
2023-04-23T10:02:17.612Z,101080.00
2023-04-23T10:12:53.448Z,101090.00
2023-04-23T10:23:20.610Z,101100.00
2023-04-23T10:33:56.070Z,101072.00
2023-04-23T10:44:44.917Z,101080.00
2023-04-23T10:55:04.190Z,101077.00
2023-04-23T11:05:29.222Z,101088.00
2023-04-23T11:15:50.859Z,101091.00
2023-04-23T11:26:18.948Z,101099.00
2023-04-23T11:36:40.848Z,101057.00
2023-04-23T11:47:04.114Z,101060.00
2023-04-23T11:57:25.583Z,101043.00
2023-04-23T12:07:51.783Z,101071.00
2023-04-23T12:18:13.461Z,101049.00
2023-04-23T12:28:36.303Z,101075.00
2023-04-23T12:39:26.251Z,101076.00
2023-04-23T12:49:53.296Z,101049.00
2023-04-23T13:00:16.516Z,101033.00
2023-04-23T13:10:39.614Z,101028.00
2023-04-23T13:21:01.166Z,101030.00
2023-04-23T13:31:24.252Z,101006.00
2023-04-23T13:41:59.236Z,101020.00
2023-04-23T13:52:31.738Z,100982.00
2023-04-23T14:02:53.472Z,100993.00
2023-04-23T14:13:25.363Z,100970.00
2023-04-23T14:23:56.036Z,100972.00
2023-04-23T14:34:19.245Z,100944.00
2023-04-23T14:44:40.796Z,100933.00
2023-04-23T14:55:03.663Z,100910.00
2023-04-23T15:05:25.566Z,100913.00
2023-04-23T15:15:53.261Z,100908.00
2023-04-23T15:26:14.843Z,100896.00
2023-04-23T15:36:38.438Z,100881.00
2023-04-23T15:47:01.308Z,100868.00
2023-04-23T15:57:24.132Z,100870.00
2023-04-23T16:07:45.800Z,100868.00
2023-04-23T16:18:08.637Z,100856.00
2023-04-23T16:28:29.953Z,100859.00
2023-04-23T16:38:52.884Z,100846.00
2023-04-23T16:49:14.455Z,100849.00
2023-04-23T16:59:40.723Z,100866.00
2023-04-23T17:10:03.584Z,100864.00
2023-04-23T17:20:34.960Z,100862.00
2023-04-23T17:30:56.409Z,100832.00
2023-04-23T17:41:19.285Z,100818.00
2023-04-23T17:51:41.157Z,100806.00
2023-04-23T18:02:05.074Z,100829.00
2023-04-23T18:12:27.291Z,100849.00
2023-04-23T18:22:50.342Z,100872.00
2023-04-23T18:33:25.985Z,100876.00
2023-04-23T18:43:49.014Z,100892.00
2023-04-23T18:54:14.743Z,100889.00
2023-04-23T19:04:37.884Z,100892.00
2023-04-23T19:14:59.427Z,100905.00
2023-04-23T19:25:22.343Z,100893.00
2023-04-23T19:35:44.138Z,100899.00
2023-04-23T19:46:07.079Z,100898.00
2023-04-23T19:56:28.463Z,100880.00
2023-04-23T20:06:51.100Z,100883.00
2023-04-23T20:17:13.028Z,100877.00
2023-04-23T20:27:35.835Z,100856.00
2023-04-23T20:37:57.579Z,100855.00
2023-04-23T20:48:20.674Z,100834.00
2023-04-23T20:58:42.013Z,100818.00
2023-04-23T21:09:05.098Z,100812.00
2023-04-23T21:19:26.525Z,100795.00
2023-04-23T21:29:49.278Z,100780.00
2023-04-23T21:40:11.385Z,100766.00
2023-04-23T21:50:34.591Z,100765.00
2023-04-23T22:00:56.263Z,100765.00
2023-04-23T22:11:20.255Z,100771.00
2023-04-23T22:21:42.164Z,100780.00
2023-04-23T22:32:04.839Z,100781.00
2023-04-23T22:42:26.302Z,100769.00
2023-04-23T22:52:49.248Z,100765.00
2023-04-23T23:03:11.004Z,100736.00
2023-04-23T23:13:33.872Z,100736.00
2023-04-23T23:23:55.444Z,100706.00
2023-04-23T23:34:18.423Z,100699.00
2023-04-23T23:44:40.050Z,100678.00
2023-04-23T23:55:02.810Z,100672.00
